Time;durP1;ratioP1;P1;durP2;ratioP2;P2;SDS_P1;SDS_P2;PMS_P1;PMS_P2;Temp;Humidity;BMP_temperature;BMP_pressure;BME280_temperature;BME280_humidity;BME280_pressure;Samples;Min_cycle;Max_cycle;Signal;HPM_P1;HPM_P2
2022/03/04 00:01:13;;;;;;;44.33;22.10;;;;;;;5.19;56.33;94316.50;5053547;28;20646;-78
2022/03/04 00:03:40;;;;;;;32.70;20.30;;;;;;;5.16;56.21;94305.78;5053353;28;20657;-75
2022/03/04 00:06:07;;;;;;;31.03;19.63;;;;;;;5.17;55.96;94322.59;5053664;28;20554;-79
2022/03/04 00:08:34;;;;;;;26.63;18.53;;;;;;;5.16;56.00;94314.19;5053126;28;20187;-77
2022/03/04 00:11:03;;;;;;;31.57;17.93;;;;;;;5.16;55.81;94319.25;5053107;28;20219;-76
2022/03/04 00:13:30;;;;;;;30.37;17.50;;;;;;;5.14;55.72;94318.56;5052814;28;20728;-77
2022/03/04 00:15:57;;;;;;;25.97;16.93;;;;;;;5.13;55.65;94322.00;5053033;28;20218;-77
2022/03/04 00:18:24;;;;;;;28.07;16.90;;;;;;;5.11;55.72;94318.78;5053029;28;20627;-75
2022/03/04 00:20:51;;;;;;;23.53;15.47;;;;;;;5.05;55.70;94306.56;5051997;28;20244;-77
2022/03/04 00:23:19;;;;;;;26.90;15.77;;;;;;;5.09;55.54;94312.22;5052982;28;20191;-77
2022/03/04 00:25:46;;;;;;;22.93;15.13;;;;;;;5.03;55.58;94309.22;5052706;28;20195;-78
2022/03/04 00:28:15;;;;;;;26.07;15.97;;;;;;;5.05;55.50;94309.09;5053326;28;20202;-76
2022/03/04 00:30:42;;;;;;;27.17;14.87;;;;;;;5.04;55.34;94310.03;5052761;28;20622;-78
2022/03/04 00:33:08;;;;;;;21.00;13.47;;;;;;;5.02;55.18;94311.88;5053274;28;20187;-77
2022/03/04 00:35:35;;;;;;;23.87;14.17;;;;;;;5.01;55.15;94303.47;5052631;28;20187;-77
2022/03/04 00:38:02;;;;;;;25.83;14.43;;;;;;;4.99;55.02;94302.75;5052979;28;20657;-79
2022/03/04 00:40:29;;;;;;;21.27;13.70;;;;;;;4.98;55.19;94301.16;5052660;28;20198;-80
2022/03/04 00:42:56;;;;;;;21.83;13.97;;;;;;;4.96;55.34;94297.13;5052978;28;20265;-78
2022/03/04 00:45:24;;;;;;;19.60;12.37;;;;;;;4.94;55.18;94298.97;5052544;28;20214;-77
2022/03/04 00:47:51;;;;;;;19.73;11.90;;;;;;;4.92;55.15;94300.78;5052587;28;20191;-80
2022/03/04 00:50:18;;;;;;;19.37;12.90;;;;;;;4.92;55.23;94311.75;5052695;28;20218;-75
2022/03/04 00:52:45;;;;;;;20.57;12.37;;;;;;;4.91;55.17;94305.06;5052208;28;20187;-76
2022/03/04 00:55:12;;;;;;;17.43;12.07;;;;;;;4.88;55.30;94290.09;5052691;28;20534;-77
2022/03/04 00:57:39;;;;;;;16.23;11.97;;;;;;;4.91;55.23;94291.59;5052199;28;20188;-78
2022/03/04 01:00:07;;;;;;;21.43;12.13;;;;;;;4.91;55.09;94286.50;5053243;28;20199;-73
2022/03/04 01:02:35;;;;;;;17.17;11.67;;;;;;;4.70;55.25;94259.31;5055086;28;20206;-77
2022/03/04 01:05:02;;;;;;;19.57;11.97;;;;;;;4.90;55.24;94287.44;5054732;28;20198;-74
2022/03/04 01:07:29;;;;;;;17.17;11.43;;;;;;;4.89;55.37;94288.38;5052708;28;20700;-75
2022/03/04 01:09:55;;;;;;;19.00;11.70;;;;;;;4.90;55.32;94284.91;5052342;28;20187;-76
2022/03/04 01:12:22;;;;;;;16.17;11.13;;;;;;;4.88;55.37;94286.72;5052349;28;20566;-80
2022/03/04 01:14:51;;;;;;;16.00;11.33;;;;;;;4.89;55.40;94283.31;5052094;28;20210;-77
2022/03/04 01:17:18;;;;;;;18.47;11.23;;;;;;;4.89;55.58;94284.09;5051996;28;20654;-74
2022/03/04 01:19:46;;;;;;;16.43;10.53;;;;;;;4.89;55.51;94273.16;5051955;28;20230;-79
2022/03/04 01:22:13;;;;;;;17.83;11.57;;;;;;;4.78;55.45;94254.50;5051921;28;20187;-80
2022/03/04 01:24:40;;;;;;;19.43;11.43;;;;;;;4.87;55.45;94270.72;5052065;28;20191;-76
2022/03/04 01:27:07;;;;;;;17.77;12.07;;;;;;;4.86;55.62;94261.53;5061874;28;20191;-77
2022/03/04 01:29:34;;;;;;;17.50;11.17;;;;;;;4.86;55.59;94264.06;5054886;28;20194;-79
2022/03/04 01:32:00;;;;;;;16.53;11.30;;;;;;;4.64;55.58;94229.38;5051417;28;20203;-80
2022/03/04 01:34:27;;;;;;;19.00;11.80;;;;;;;4.87;55.44;94263.13;5051189;28;20195;-81
2022/03/04 01:36:55;;;;;;;17.80;11.33;;;;;;;4.86;55.71;94258.19;5051804;28;20190;-73
2022/03/04 01:39:22;;;;;;;21.80;14.27;;;;;;;4.84;55.73;94258.31;5051320;28;20195;-80
2022/03/04 01:41:49;;;;;;;19.53;14.23;;;;;;;4.73;55.85;94243.91;5051444;28;20183;-80
2022/03/04 01:44:16;;;;;;;27.67;15.50;;;;;;;4.61;55.77;94218.66;5052148;28;20199;-80
2022/03/04 01:46:43;;;;;;;27.20;17.70;;;;;;;4.83;55.95;94261.75;5051396;28;20199;-76
2022/03/04 01:49:10;;;;;;;28.63;16.67;;;;;;;4.83;56.05;94255.88;5051821;28;20191;-79
2022/03/04 01:51:37;;;;;;;25.20;16.00;;;;;;;4.83;56.19;94248.28;5052256;28;20211;-79
2022/03/04 01:54:05;;;;;;;32.13;18.60;;;;;;;4.62;56.20;94221.13;5051455;28;20278;-80
2022/03/04 01:56:32;;;;;;;30.60;18.13;;;;;;;4.83;56.56;94259.22;5051171;28;20198;-80
2022/03/04 01:58:59;;;;;;;36.23;20.77;;;;;;;4.77;56.44;94237.69;5051386;28;20195;-79
2022/03/04 02:01:26;;;;;;;32.27;21.53;;;;;;;4.82;56.49;94239.88;5051286;28;20199;-80
2022/03/04 02:03:53;;;;;;;40.63;23.10;;;;;;;4.71;56.57;94227.22;5053427;28;20198;-81
2022/03/04 02:06:20;;;;;;;36.97;23.20;;;;;;;4.73;56.51;94230.44;5056792;28;20197;-80
2022/03/04 02:08:46;;;;;;;39.87;23.93;;;;;;;4.84;56.92;94240.59;5051491;28;20205;-79
2022/03/04 02:11:15;;;;;;;36.87;23.30;;;;;;;4.84;57.05;94242.31;5050701;28;20223;-78
2022/03/04 02:13:42;;;;;;;36.27;23.67;;;;;;;4.86;57.08;94243.00;5051274;28;20626;-79
2022/03/04 02:16:18;;;;;;;37.20;23.07;;;;;;;4.85;57.13;94239.66;5050787;28;20283;-79
2022/03/04 02:18:46;;;;;;;37.17;22.77;;;;;;;4.70;57.15;94216.25;5050606;28;20680;-80
2022/03/04 02:21:15;;;;;;;38.40;23.43;;;;;;;4.73;57.27;94221.09;5050533;28;20676;-77
2022/03/04 02:23:43;;;;;;;37.37;23.23;;;;;;;4.88;57.20;94241.13;5050739;28;20666;-74
2022/03/04 02:26:10;;;;;;;40.67;23.93;;;;;;;4.73;57.34;94217.75;5050830;28;20202;-79
2022/03/04 02:28:37;;;;;;;37.40;23.87;;;;;;;4.87;57.26;94237.00;5050716;28;20582;-79
2022/03/04 02:31:04;;;;;;;34.30;22.23;;;;;;;4.87;57.44;94237.00;5050516;28;20227;-79
2022/03/04 02:33:31;;;;;;;36.90;21.70;;;;;;;4.85;57.38;94237.13;5050524;28;20202;-81
2022/03/04 02:35:58;;;;;;;38.77;21.93;;;;;;;4.86;57.49;94240.47;5050746;28;20195;-79
2022/03/04 02:38:25;;;;;;;36.80;22.37;;;;;;;4.86;57.28;94243.00;5050789;28;20195;-76
2022/03/04 02:40:53;;;;;;;37.60;22.53;;;;;;;4.84;57.34;94232.97;5050488;28;20187;-80
2022/03/04 02:43:20;;;;;;;37.93;20.97;;;;;;;4.83;57.39;94231.34;5050449;28;20215;-77
2022/03/04 02:45:47;;;;;;;36.47;22.80;;;;;;;4.83;57.23;94233.06;5050537;28;20222;-78
2022/03/04 02:48:13;;;;;;;41.27;22.20;;;;;;;4.78;57.26;94225.81;5050407;28;20221;-78
2022/03/04 02:50:40;;;;;;;34.00;21.10;;;;;;;4.79;57.25;94222.34;5050265;28;20227;-77
2022/03/04 02:53:07;;;;;;;43.40;23.13;;;;;;;4.73;57.35;94222.84;5049939;28;20195;-78
2022/03/04 02:55:34;;;;;;;40.70;23.47;;;;;;;4.65;57.25;94209.94;5050666;28;20190;-76
2022/03/04 02:58:02;;;;;;;38.97;24.40;;;;;;;4.72;57.43;94221.22;5050382;28;20206;-77
2022/03/04 03:00:30;;;;;;;41.73;25.37;;;;;;;4.52;57.67;94184.72;5050120;28;20669;-75
2022/03/04 03:02:57;;;;;;;47.20;26.33;;;;;;;4.74;57.69;94222.72;5050233;28;20557;-79
2022/03/04 03:05:23;;;;;;;44.87;25.93;;;;;;;4.74;57.67;94229.50;5050500;28;20198;-74
2022/03/04 03:07:50;;;;;;;43.03;25.90;;;;;;;4.71;58.15;94230.56;5050338;28;20658;-82
2022/03/04 03:10:17;;;;;;;43.60;25.87;;;;;;;4.63;58.14;94216.84;5050488;28;20187;-78
2022/03/04 03:12:44;;;;;;;46.07;27.07;;;;;;;4.68;58.04;94233.31;5050438;28;20278;-80
2022/03/04 03:15:13;;;;;;;43.63;25.53;;;;;;;4.71;58.15;94238.16;5050550;28;20203;-79
2022/03/04 03:17:40;;;;;;;50.90;28.57;;;;;;;4.69;58.11;94229.84;5050460;28;20225;-79
2022/03/04 03:20:08;;;;;;;47.67;26.60;;;;;;;4.66;58.35;94230.09;5050419;28;20238;-80
2022/03/04 03:22:35;;;;;;;46.03;25.93;;;;;;;4.66;58.39;94226.72;5053141;28;20281;-79
2022/03/04 03:25:02;;;;;;;46.60;27.13;;;;;;;4.58;58.34;94222.25;5059081;28;20193;-78
2022/03/04 03:27:29;;;;;;;49.50;26.57;;;;;;;4.66;58.32;94235.16;5060034;28;20687;-79
2022/03/04 03:29:56;;;;;;;47.23;26.90;;;;;;;4.67;58.36;94241.84;5056015;28;20285;-76
2022/03/04 03:32:24;;;;;;;41.40;28.07;;;;;;;4.65;58.48;94245.38;5051113;28;20223;-83
2022/03/04 03:34:51;;;;;;;46.20;26.53;;;;;;;4.62;58.64;94243.91;5052469;28;20191;-78
2022/03/04 03:37:18;;;;;;;50.43;26.80;;;;;;;4.52;58.55;94233.63;5050670;28;20191;-79
2022/03/04 03:39:45;;;;;;;47.07;28.03;;;;;;;4.63;58.50;94245.50;5050077;28;20187;-80
2022/03/04 03:42:12;;;;;;;45.93;27.50;;;;;;;4.15;58.69;94173.97;5050238;28;20183;-78
2022/03/04 03:44:39;;;;;;;42.33;26.87;;;;;;;4.43;58.31;94219.09;5049929;28;20211;-78
2022/03/04 03:47:06;;;;;;;48.40;28.97;;;;;;;4.54;58.54;94248.72;5049893;28;20192;-77
2022/03/04 03:49:34;;;;;;;54.80;31.43;;;;;;;4.55;58.71;94257.91;5050250;28;20199;-78
2022/03/04 03:52:01;;;;;;;51.40;30.10;;;;;;;4.53;58.77;94242.00;5050234;28;20218;-81
2022/03/04 03:54:27;;;;;;;52.77;30.87;;;;;;;4.50;58.60;94244.78;5050152;28;20194;-78
2022/03/04 03:56:54;;;;;;;52.53;31.57;;;;;;;4.48;58.69;94246.63;5052170;28;20293;-81
2022/03/04 03:59:21;;;;;;;50.93;30.53;;;;;;;4.39;58.73;94248.09;5053810;28;20642;-81
2022/03/04 04:01:48;;;;;;;47.63;30.23;;;;;;;4.31;58.78;94230.13;5053457;28;20241;-76
2022/03/04 04:04:15;;;;;;;57.50;31.50;;;;;;;4.42;58.86;94257.19;5055610;28;20191;-81
2022/03/04 04:06:44;;;;;;;47.63;29.57;;;;;;;4.40;58.91;94259.03;5054389;28;20198;-81
2022/03/04 04:09:11;;;;;;;48.53;29.67;;;;;;;4.36;58.69;94250.03;5053837;28;20198;-81
2022/03/04 04:11:39;;;;;;;53.00;30.47;;;;;;;4.35;58.92;94254.28;5054128;28;20716;-79
2022/03/04 04:14:08;;;;;;;49.67;28.83;;;;;;;4.33;59.05;94253.59;5053032;28;20248;-81
2022/03/04 04:16:36;;;;;;;50.13;29.67;;;;;;;4.20;58.86;94238.50;5052746;28;20665;-80
2022/03/04 04:19:03;;;;;;;52.30;29.63;;;;;;;4.28;58.88;94256.47;5053174;28;20254;-80
2022/03/04 04:21:30;;;;;;;49.93;30.20;;;;;;;4.15;58.92;94237.22;5053213;28;20198;-80
2022/03/04 04:23:58;;;;;;;44.27;28.37;;;;;;;4.26;59.21;94254.97;5053480;28;20606;-80
2022/03/04 04:26:26;;;;;;;53.73;30.07;;;;;;;4.24;59.13;94257.59;5053115;28;20566;-79
2022/03/04 04:28:52;;;;;;;55.53;29.70;;;;;;;4.19;59.17;94249.56;5053137;28;20210;-77
2022/03/04 04:31:19;;;;;;;53.43;28.60;;;;;;;4.22;59.21;94266.22;5053540;28;20223;-74
2022/03/04 04:33:46;;;;;;;44.53;27.93;;;;;;;4.22;59.35;94263.69;5052774;28;20614;-80
2022/03/04 04:36:13;;;;;;;53.60;29.27;;;;;;;4.20;59.40;94260.47;5052858;28;20191;-82
2022/03/04 04:38:40;;;;;;;52.27;29.87;;;;;;;4.15;59.56;94260.81;5052698;28;20573;-79
2022/03/04 04:41:08;;;;;;;49.17;30.23;;;;;;;4.19;58.95;94274.84;5053159;28;20202;-80
2022/03/04 04:43:36;;;;;;;51.37;29.17;;;;;;;4.18;59.48;94267.34;5052540;28;20554;-78
2022/03/04 04:46:02;;;;;;;48.93;29.50;;;;;;;4.05;59.50;94259.03;5052863;28;20192;-80
2022/03/04 04:48:30;;;;;;;46.50;28.40;;;;;;;4.16;59.72;94282.66;5062640;28;20202;-80
2022/03/04 04:50:59;;;;;;;51.73;30.27;;;;;;;4.15;59.73;94282.78;5055216;28;20817;-80
2022/03/04 04:53:25;;;;;;;49.90;29.23;;;;;;;4.13;59.75;94280.34;5052502;28;20244;-80
2022/03/04 04:55:52;;;;;;;46.80;29.23;;;;;;;3.92;59.84;94241.38;5052363;28;20193;-81
2022/03/04 04:58:21;;;;;;;43.90;28.53;;;;;;;4.15;59.84;94288.63;5051112;28;20191;-80
2022/03/04 05:00:53;;;;;;;52.47;31.90;;;;;;;4.12;59.91;94278.72;5052521;28;20213;-78
2022/03/04 05:03:20;;;;;;;50.33;30.77;;;;;;;4.14;59.92;94283.66;5052117;28;20222;-81
2022/03/04 05:05:47;;;;;;;54.80;30.47;;;;;;;4.14;59.94;94283.66;5052511;28;20198;-80
2022/03/04 05:08:14;;;;;;;46.50;28.83;;;;;;;4.15;59.96;94285.31;5052300;28;20286;-74
2022/03/04 05:10:41;;;;;;;51.17;29.83;;;;;;;4.15;60.01;94286.09;5052510;28;20658;-80
2022/03/04 05:13:07;;;;;;;51.87;29.37;;;;;;;4.17;59.99;94281.72;5051923;28;20234;-81
2022/03/04 05:15:36;;;;;;;51.33;31.70;;;;;;;4.16;59.96;94274.25;5051598;28;20248;-75
2022/03/04 05:18:03;;;;;;;54.57;29.00;;;;;;;4.20;59.98;94275.66;5051848;28;20187;-77
2022/03/04 05:20:30;;;;;;;44.37;29.53;;;;;;;4.25;59.81;94281.19;5051484;28;20222;-83
2022/03/04 05:22:57;;;;;;;50.43;29.90;;;;;;;4.30;60.18;94280.84;5051967;28;20195;-80
2022/03/04 05:25:23;;;;;;;49.93;30.03;;;;;;;4.27;59.73;94266.69;5051714;28;20183;-80
2022/03/04 05:27:51;;;;;;;45.53;29.17;;;;;;;4.38;59.85;94279.41;5051762;28;20194;-79
2022/03/04 05:30:18;;;;;;;47.90;30.40;;;;;;;4.42;59.69;94277.44;5051556;28;20636;-81
2022/03/04 05:32:46;;;;;;;46.30;29.50;;;;;;;4.26;59.54;94242.31;5051478;28;20234;-79
2022/03/04 05:35:13;;;;;;;49.60;29.80;;;;;;;4.55;59.43;94283.25;5051735;28;20192;-81
2022/03/04 05:37:40;;;;;;;49.73;30.50;;;;;;;4.59;59.50;94284.63;5052208;28;20191;-72
2022/03/04 05:40:08;;;;;;;47.50;29.63;;;;;;;4.60;59.34;94276.09;5051356;28;20191;-80
2022/03/04 05:42:35;;;;;;;49.43;30.97;;;;;;;4.61;58.99;94275.19;5051694;28;20701;-80
2022/03/04 05:45:02;;;;;;;47.57;29.50;;;;;;;4.75;59.19;94294.47;5051567;28;20235;-76
2022/03/04 05:47:29;;;;;;;48.60;29.47;;;;;;;4.55;59.02;94255.38;5051621;28;20199;-78
2022/03/04 05:49:57;;;;;;;49.70;30.07;;;;;;;4.88;58.91;94289.25;5051408;28;20274;-82
2022/03/04 05:52:26;;;;;;;49.23;29.83;;;;;;;4.83;58.58;94266.00;5051192;28;20225;-75
2022/03/04 05:54:53;;;;;;;51.90;29.07;;;;;;;4.95;58.53;94287.91;5051069;28;20241;-80
2022/03/04 05:57:20;;;;;;;49.33;31.33;;;;;;;5.10;58.30;94296.13;5050930;28;20903;-80
2022/03/04 05:59:46;;;;;;;48.83;31.07;;;;;;;5.17;58.30;94295.50;5051241;28;20245;-77
2022/03/04 06:02:13;;;;;;;51.37;31.47;;;;;;;5.24;57.94;94285.72;5051173;28;20191;-81
2022/03/04 06:04:40;;;;;;;51.33;30.57;;;;;;;5.37;57.57;94281.34;5050900;28;20194;-77
2022/03/04 06:07:08;;;;;;;49.17;29.63;;;;;;;5.58;57.33;94285.72;5050679;28;20195;-82
2022/03/04 06:09:37;;;;;;;52.87;31.47;;;;;;;5.75;57.11;94291.09;5050957;28;20194;-80
2022/03/04 06:12:04;;;;;;;50.73;30.43;;;;;;;5.81;56.65;94273.78;5050926;28;20265;-79
2022/03/04 06:14:31;;;;;;;50.53;29.23;;;;;;;6.25;56.77;94293.16;5050753;28;20191;-80
2022/03/04 06:16:58;;;;;;;52.97;32.60;;;;;;;6.57;55.96;94288.06;5050691;28;20214;-77
2022/03/04 06:19:25;;;;;;;46.13;29.93;;;;;;;6.86;55.65;94288.22;5050268;28;20215;-78
2022/03/04 06:21:52;;;;;;;48.50;30.37;;;;;;;7.21;55.40;94287.91;5050698;28;20191;-78
2022/03/04 06:24:20;;;;;;;55.67;30.60;;;;;;;7.46;54.98;94291.72;5050448;28;20249;-78
2022/03/04 06:26:47;;;;;;;50.53;29.47;;;;;;;7.47;54.51;94259.47;5050545;28;20202;-76
2022/03/04 06:29:14;;;;;;;42.77;29.27;;;;;;;7.89;53.91;94290.63;5050699;28;20179;-79
2022/03/04 06:31:41;;;;;;;46.70;28.53;;;;;;;8.06;53.92;94279.00;5050708;28;20256;-79
2022/03/04 06:34:07;;;;;;;51.03;28.40;;;;;;;8.19;53.49;94268.56;5050371;28;20685;-77
2022/03/04 06:36:34;;;;;;;46.93;30.73;;;;;;;8.41;52.99;94280.25;5050595;28;20205;-79
2022/03/04 06:39:01;;;;;;;51.70;29.70;;;;;;;8.60;52.57;94303.19;5050208;28;20187;-78
2022/03/04 06:41:29;;;;;;;46.93;30.60;;;;;;;8.59;52.40;94291.38;5050725;28;20270;-78
2022/03/04 06:43:56;;;;;;;49.03;28.73;;;;;;;8.70;52.11;94300.63;5050574;28;20191;-81
2022/03/04 06:46:23;;;;;;;50.10;30.53;;;;;;;8.78;51.72;94306.66;5050400;28;20202;-76
2022/03/04 06:48:50;;;;;;;54.13;30.70;;;;;;;8.82;51.47;94314.03;5050261;28;20225;-80
2022/03/04 06:51:17;;;;;;;47.30;29.97;;;;;;;8.39;50.93;94247.28;5050494;28;20543;-78
2022/03/04 06:53:44;;;;;;;50.10;31.33;;;;;;;8.54;51.29;94262.94;5049992;28;20230;-77
2022/03/04 06:56:11;;;;;;;46.50;30.17;;;;;;;8.85;50.77;94311.19;5050754;28;20191;-81
2022/03/04 06:58:40;;;;;;;51.23;30.47;;;;;;;8.86;50.86;94313.63;5050865;28;20197;-80
2022/03/04 07:01:06;;;;;;;46.83;29.77;;;;;;;8.86;50.54;94326.38;5050691;28;20179;-77
2022/03/04 07:03:33;;;;;;;48.93;30.90;;;;;;;8.88;50.47;94319.38;5050340;28;20198;-77
2022/03/04 07:06:00;;;;;;;53.70;32.40;;;;;;;8.91;50.34;94336.97;5050054;28;20195;-78
2022/03/04 07:08:27;;;;;;;50.97;31.57;;;;;;;8.99;50.02;94323.53;5050206;28;20198;-76
2022/03/04 07:10:54;;;;;;;48.70;32.20;;;;;;;9.03;49.61;94318.03;5050195;28;20194;-77
2022/03/04 07:13:21;;;;;;;50.30;31.60;;;;;;;9.13;49.75;94330.75;5049903;28;20210;-76
2022/03/04 07:15:51;;;;;;;55.00;33.20;;;;;;;9.24;49.42;94328.06;5050592;28;20195;-77
2022/03/04 07:18:18;;;;;;;48.27;31.33;;;;;;;9.38;49.20;94326.00;5050695;28;20191;-82
2022/03/04 07:20:44;;;;;;;53.60;33.37;;;;;;;9.51;48.82;94318.84;5049989;28;20219;-74
2022/03/04 07:23:14;;;;;;;49.10;31.40;;;;;;;9.73;48.72;94328.66;5050427;28;20195;-79
2022/03/04 07:25:40;;;;;;;48.73;31.03;;;;;;;9.98;48.40;94324.66;5050019;28;20669;-79
2022/03/04 07:28:08;;;;;;;47.67;30.63;;;;;;;10.17;48.26;94328.03;5053437;28;20194;-80
2022/03/04 07:30:35;;;;;;;43.73;31.40;;;;;;;10.33;48.03;94328.25;5055770;28;20187;-79
2022/03/04 07:33:04;;;;;;;49.03;30.37;;;;;;;10.50;47.89;94322.31;5054219;28;20283;-76
2022/03/04 07:35:31;;;;;;;49.83;32.10;;;;;;;10.63;47.34;94309.19;5053801;28;20210;-78
2022/03/04 07:37:57;;;;;;;51.20;31.43;;;;;;;11.02;46.88;94326.75;5054070;28;20593;-80
2022/03/04 07:40:24;;;;;;;49.37;31.10;;;;;;;11.28;46.71;94330.09;5054529;28;20190;-78
2022/03/04 07:42:51;;;;;;;47.87;31.60;;;;;;;11.52;46.65;94328.63;5053595;28;20634;-76
2022/03/04 07:45:18;;;;;;;51.27;32.87;;;;;;;11.72;46.30;94327.44;5054254;28;20233;-80
2022/03/04 07:47:45;;;;;;;43.47;30.97;;;;;;;11.93;45.89;94321.97;5053541;28;20187;-77
2022/03/04 07:50:14;;;;;;;44.73;30.73;;;;;;;12.10;45.70;94320.25;5053948;28;20312;-78
2022/03/04 07:52:41;;;;;;;52.23;32.43;;;;;;;12.21;45.37;94325.06;5053246;28;20219;-78
2022/03/04 07:55:10;;;;;;;50.43;32.00;;;;;;;12.34;44.93;94329.75;5053853;28;20179;-73
2022/03/04 07:57:37;;;;;;;47.10;29.97;;;;;;;12.41;44.47;94329.94;5053423;28;20195;-77
2022/03/04 08:00:06;;;;;;;44.60;28.93;;;;;;;12.48;44.13;94324.03;5053681;28;20199;-72
2022/03/04 08:02:32;;;;;;;48.47;29.87;;;;;;;12.55;43.81;94327.53;5053674;28;20191;-76
2022/03/04 08:04:59;;;;;;;43.20;27.10;;;;;;;12.64;43.43;94328.34;5055719;28;20183;-78
2022/03/04 08:07:27;;;;;;;41.83;26.30;;;;;;;12.70;43.17;94322.59;5058457;28;20195;-76
2022/03/04 08:09:54;;;;;;;38.60;27.57;;;;;;;12.77;42.96;94331.25;5058046;28;20187;-74
2022/03/04 08:12:22;;;;;;;33.67;24.30;;;;;;;12.68;42.86;94306.56;5056257;28;20219;-79
2022/03/04 08:14:49;;;;;;;39.53;26.63;;;;;;;12.84;42.56;94325.50;5053534;28;20214;-79
2022/03/04 08:17:16;;;;;;;32.10;23.70;;;;;;;12.92;42.06;94328.84;5053135;28;20198;-75
2022/03/04 08:19:46;;;;;;;40.40;24.80;;;;;;;12.94;41.97;94332.06;5053430;28;20234;-80
2022/03/04 08:22:13;;;;;;;39.80;24.40;;;;;;;12.94;41.69;94331.25;5053129;28;20190;-75
2022/03/04 08:24:41;;;;;;;34.80;23.70;;;;;;;12.80;41.63;94312.19;5053351;28;20202;-78
2022/03/04 08:27:08;;;;;;;32.53;23.50;;;;;;;12.90;41.54;94332.53;5053316;28;20191;-81
2022/03/04 08:29:35;;;;;;;42.70;25.03;;;;;;;12.86;41.48;94329.47;5052929;28;20187;-80
2022/03/04 08:32:02;;;;;;;36.97;23.90;;;;;;;12.85;41.59;94332.22;5053209;28;20195;-81
2022/03/04 08:34:28;;;;;;;35.30;23.40;;;;;;;12.83;41.56;94334.97;5052491;28;20195;-79
2022/03/04 08:36:55;;;;;;;33.50;22.63;;;;;;;12.92;41.30;94338.31;5052876;28;20657;-73
2022/03/04 08:39:22;;;;;;;35.10;22.97;;;;;;;13.00;41.08;94336.56;5052864;28;20180;-80
2022/03/04 08:41:50;;;;;;;40.03;25.00;;;;;;;13.11;40.94;94337.97;5052848;28;20198;-81
2022/03/04 08:44:17;;;;;;;36.20;24.30;;;;;;;13.22;40.88;94334.28;5052985;28;20199;-82
2022/03/04 08:46:44;;;;;;;35.63;24.73;;;;;;;13.29;40.55;94341.19;5052828;28;20202;-79
2022/03/04 08:49:11;;;;;;;36.60;24.33;;;;;;;13.28;40.55;94328.53;5052477;28;20198;-79
2022/03/04 08:51:38;;;;;;;32.60;23.20;;;;;;;13.48;40.59;94342.63;5053047;28;20190;-80
2022/03/04 08:54:07;;;;;;;38.20;23.67;;;;;;;13.58;40.17;94339.88;5052355;28;20231;-78
2022/03/04 08:56:34;;;;;;;29.33;22.13;;;;;;;13.67;40.17;94343.22;5052285;28;20630;-80
2022/03/04 08:59:03;;;;;;;34.80;21.70;;;;;;;13.74;39.98;94336.47;5052314;28;20651;-77
2022/03/04 09:01:30;;;;;;;29.63;20.37;;;;;;;13.81;39.77;94333.03;5052070;28;20195;-76
2022/03/04 09:03:58;;;;;;;36.00;21.33;;;;;;;13.89;39.61;94337.34;5052318;28;20190;-78
2022/03/04 09:06:24;;;;;;;35.57;21.20;;;;;;;13.97;39.56;94336.53;5052406;28;20191;-77
2022/03/04 09:08:51;;;;;;;36.77;21.10;;;;;;;14.04;39.18;94330.56;5052950;28;20194;-79
2022/03/04 09:11:20;;;;;;;29.77;20.20;;;;;;;14.15;39.28;94331.13;5053217;28;20183;-80
2022/03/04 09:13:47;;;;;;;30.70;20.20;;;;;;;14.06;38.79;94305.47;5052509;28;20222;-77
2022/03/04 09:16:15;;;;;;;31.57;20.03;;;;;;;14.31;38.71;94338.78;5052141;28;20195;-79
2022/03/04 09:18:42;;;;;;;30.63;19.37;;;;;;;14.38;38.34;94320.88;5052089;28;20888;-75
2022/03/04 09:21:09;;;;;;;32.37;20.37;;;;;;;14.49;38.35;94336.78;5052151;28;20202;-79
2022/03/04 09:23:36;;;;;;;27.30;20.00;;;;;;;14.53;38.05;94335.47;5052401;28;20642;-75
2022/03/04 09:26:02;;;;;;;34.20;20.33;;;;;;;14.58;37.76;94332.38;5052690;28;20183;-77
2022/03/04 09:28:29;;;;;;;30.87;20.37;;;;;;;14.54;37.88;94324.19;5053573;28;20602;-79
2022/03/04 09:30:56;;;;;;;34.93;21.63;;;;;;;14.55;37.73;94333.53;5054650;28;20203;-76
2022/03/04 09:33:25;;;;;;;31.97;21.40;;;;;;;14.52;37.58;94333.84;5053648;28;20225;-75
2022/03/04 09:35:52;;;;;;;27.23;19.20;;;;;;;14.45;37.78;94325.19;5054337;28;20198;-76
2022/03/04 09:38:18;;;;;;;27.97;19.43;;;;;;;14.36;37.61;94318.50;5054158;28;20639;-74
2022/03/04 09:40:46;;;;;;;37.23;21.77;;;;;;;14.39;37.50;94328.44;5054555;28;20179;-78
2022/03/04 09:43:13;;;;;;;28.17;20.70;;;;;;;14.36;37.55;94331.34;5051370;28;20187;-76
2022/03/04 09:45:39;;;;;;;30.23;19.13;;;;;;;14.32;37.61;94333.44;5051683;28;20194;-77
2022/03/04 09:48:06;;;;;;;29.63;19.97;;;;;;;14.30;37.58;94332.84;5051280;28;20210;-80
2022/03/04 09:50:36;;;;;;;33.67;20.40;;;;;;;14.28;37.26;94334.75;5051589;28;20226;-79
2022/03/04 09:53:08;;;;;;;33.20;20.47;;;;;;;14.16;37.26;94317.31;5050577;28;20320;-79
2022/03/04 09:55:35;;;;;;;30.03;19.83;;;;;;;14.20;37.36;94327.09;5051231;28;20191;-79
2022/03/04 09:58:02;;;;;;;30.70;20.63;;;;;;;14.20;37.40;94332.22;5051346;28;20187;-80
2022/03/04 10:00:29;;;;;;;31.87;19.83;;;;;;;14.20;37.29;94334.81;5054055;28;20316;-78
2022/03/04 10:02:56;;;;;;;31.53;19.93;;;;;;;13.92;37.31;94285.63;5054657;28;20195;-77
2022/03/04 10:05:23;;;;;;;27.87;19.60;;;;;;;14.19;37.41;94325.50;5055247;28;20191;-74
2022/03/04 10:07:53;;;;;;;34.83;20.67;;;;;;;14.18;37.24;94323.91;5054180;28;20191;-77
2022/03/04 10:10:22;;;;;;;28.00;19.70;;;;;;;14.18;37.31;94315.38;5053080;28;20187;-75
2022/03/04 10:12:55;;;;;;;31.23;20.37;;;;;;;14.16;37.27;94317.31;5052759;28;20197;-77
2022/03/04 10:15:22;;;;;;;32.10;20.60;;;;;;;14.01;37.44;94317.22;5053139;28;20845;-79
2022/03/04 10:18:01;;;;;;;34.17;20.57;;;;;;;13.92;37.62;94313.88;5052719;28;20191;-74
2022/03/04 10:20:39;;;;;;;30.87;21.30;;;;;;;13.83;37.66;94311.53;5052685;28;20226;-78
2022/03/04 10:23:13;;;;;;;30.87;21.53;;;;;;;13.81;37.77;94309.09;5052246;28;20207;-75
2022/03/04 10:25:44;;;;;;;33.77;20.87;;;;;;;13.81;37.75;94306.53;5051514;28;20183;-79
2022/03/04 10:28:12;;;;;;;32.33;22.27;;;;;;;13.79;37.74;94301.56;5050510;28;20202;-76
2022/03/04 10:30:44;;;;;;;36.80;21.20;;;;;;;13.81;37.45;94309.91;5050834;28;20190;-77
2022/03/04 10:33:13;;;;;;;32.60;22.20;;;;;;;13.81;37.53;94297.06;5050668;28;20292;-78
2022/03/04 10:35:40;;;;;;;34.27;21.17;;;;;;;13.81;37.59;94291.13;5051057;28;20218;-78
2022/03/04 10:38:17;;;;;;;26.57;20.37;;;;;;;13.82;37.43;94292.75;5050157;28;20205;-73
2022/03/04 10:40:46;;;;;;;28.90;19.43;;;;;;;13.83;37.54;94288.41;5050304;28;20605;-80
2022/03/04 10:43:16;;;;;;;29.97;19.47;;;;;;;13.81;37.55;94284.19;5050334;28;20658;-81
2022/03/04 10:45:44;;;;;;;32.30;19.70;;;;;;;13.79;37.54;94282.78;5050519;28;20651;-81
2022/03/04 10:48:12;;;;;;;29.47;19.53;;;;;;;13.67;37.64;94271.25;5050115;28;20202;-77
2022/03/04 10:50:42;;;;;;;27.07;19.37;;;;;;;13.58;37.79;94257.66;5050438;28;20655;-79
2022/03/04 10:53:10;;;;;;;29.13;19.50;;;;;;;13.51;37.58;94241.28;5049822;28;20211;-80
2022/03/04 10:55:40;;;;;;;30.47;17.87;;;;;;;13.67;37.58;94258.41;5050594;28;20194;-77
2022/03/04 10:58:14;;;;;;;23.97;18.13;;;;;;;13.63;37.57;94252.00;5050554;28;20641;-78
2022/03/04 11:00:44;;;;;;;27.30;18.10;;;;;;;13.70;37.50;94261.47;5050315;28;20592;-77
2022/03/04 11:03:16;;;;;;;24.03;16.57;;;;;;;13.65;37.71;94261.16;5050095;28;20233;-73
2022/03/04 11:05:42;;;;;;;27.90;18.70;;;;;;;13.59;37.72;94253.31;5049832;28;20292;-75
2022/03/04 11:08:10;;;;;;;24.27;17.70;;;;;;;13.51;37.96;94249.81;5049994;28;20650;-79
2022/03/04 11:10:37;;;;;;;25.07;17.47;;;;;;;13.52;37.65;94248.84;5050047;28;20226;-77
2022/03/04 11:13:05;;;;;;;24.50;17.17;;;;;;;13.52;37.79;94246.28;5049948;28;20191;-77
2022/03/04 11:15:34;;;;;;;25.77;17.30;;;;;;;13.54;37.51;94246.09;5050343;28;20198;-77
2022/03/04 11:18:05;;;;;;;26.13;15.73;;;;;;;13.57;37.64;94238.06;5050184;28;20191;-79
2022/03/04 11:20:32;;;;;;;25.80;15.27;;;;;;;13.63;37.64;94239.16;5050344;28;20223;-77
2022/03/04 11:23:00;;;;;;;22.17;15.47;;;;;;;13.68;37.78;94229.97;5050221;28;20201;-78